Time;durP1;ratioP1;P1;durP2;ratioP2;P2;SDS_P1;SDS_P2;PMS_P1;PMS_P2;Temp;Humidity;BMP_temperature;BMP_pressure;BME280_temperature;BME280_humidity;BME280_pressure;Samples;Min_cycle;Max_cycle;Signal;HPM_P1;HPM_P2
2021/04/30 00:00:49;;;;;;;;;;;6.90;99.90;;;;;;5051178;28;19904;-77
2021/04/30 00:03:15;;;;;;;;;;;6.90;99.90;;;;;;5051192;28;20283;-77
2021/04/30 00:05:40;;;;;;;;;;;6.80;99.90;;;;;;5050989;28;19905;-77
2021/04/30 00:08:06;;;;;;;;;;;6.80;99.90;;;;;;5050853;28;20342;-78
2021/04/30 00:10:31;;;;;;;;;;;6.80;99.90;;;;;;5050833;28;20359;-77
2021/04/30 00:12:57;;;;;;;;;;;6.70;99.90;;;;;;5052216;28;19912;-79
2021/04/30 00:15:22;;;;;;;;;;;6.60;99.90;;;;;;5052130;28;19905;-78
2021/04/30 00:17:48;;;;;;;;;;;6.60;99.90;;;;;;5051695;28;19912;-77
2021/04/30 00:20:14;;;;;;;;;;;6.50;99.90;;;;;;5052216;28;20135;-77
2021/04/30 00:22:40;;;;;;;;;;;6.40;99.90;;;;;;5053473;28;20287;-77
2021/04/30 00:25:06;;;;;;;;;;;6.30;99.90;;;;;;5054670;28;19912;-77
2021/04/30 00:27:31;;;;;;;;;;;6.20;99.90;;;;;;5054645;28;19908;-77
2021/04/30 00:29:57;;;;;;;;;;;6.10;99.90;;;;;;5054959;28;19913;-77
2021/04/30 00:32:22;;;;;;;;;;;6.10;99.90;;;;;;5054967;28;19951;-78
2021/04/30 00:34:48;;;;;;;;;;;6.00;99.90;;;;;;5055775;28;19905;-77
2021/04/30 00:37:13;;;;;;;;;;;6.00;99.90;;;;;;5055754;28;19948;-77
2021/04/30 00:39:39;;;;;;;;;;;6.00;99.90;;;;;;5055692;28;19927;-77
2021/04/30 00:42:04;;;;;;;;;;;5.90;99.90;;;;;;5056202;28;19908;-77
2021/04/30 00:44:30;;;;;;;;;;;6.00;99.90;;;;;;5054268;28;19991;-77
2021/04/30 00:46:55;;;;;;;;;;;6.00;99.90;;;;;;5055486;28;20330;-77
2021/04/30 00:49:21;;;;;;;;;;;5.90;99.90;;;;;;5055673;28;19911;-77
2021/04/30 00:51:47;;;;;;;;;;;6.00;99.90;;;;;;5054276;28;19940;-78
2021/04/30 00:54:12;;;;;;;;;;;5.90;99.90;;;;;;5055357;28;19904;-77
2021/04/30 00:56:38;;;;;;;;;;;5.90;99.90;;;;;;5054151;28;19905;-77
2021/04/30 00:59:04;;;;;;;;;;;5.80;99.90;;;;;;5035175;28;19909;-77
2021/04/30 01:01:29;;;;;;;;;;;5.80;99.90;;;;;;5035637;28;19905;-78
2021/04/30 01:03:55;;;;;;;;;;;5.60;99.90;;;;;;5033989;28;19959;-77
2021/04/30 01:06:20;;;;;;;;;;;5.60;99.90;;;;;;5035211;28;19916;-77
2021/04/30 01:08:46;;;;;;;;;;;5.60;99.90;;;;;;5035562;28;19912;-77
2021/04/30 01:11:12;;;;;;;;;;;5.50;99.90;;;;;;5034024;28;19913;-77
2021/04/30 01:13:37;;;;;;;;;;;5.50;99.90;;;;;;5034118;28;19905;-78
2021/04/30 01:16:03;;;;;;;;;;;5.50;99.90;;;;;;5035050;28;19904;-77
2021/04/30 01:18:38;;;;;;;;;;;5.50;99.90;;;;;;5033780;28;19908;-77
2021/04/30 01:21:03;;;;;;;;;;;5.60;99.90;;;;;;5050478;28;20021;-77
2021/04/30 01:23:29;;;;;;;;;;;5.60;99.90;;;;;;5035044;28;19947;-77
2021/04/30 01:25:54;;;;;;;;;;;5.50;99.90;;;;;;5033619;28;20438;-77
2021/04/30 01:28:20;;;;;;;;;;;5.50;99.90;;;;;;5035180;28;20283;-77
2021/04/30 01:30:45;;;;;;;;;;;5.60;99.90;;;;;;5033614;28;19909;-77
2021/04/30 01:33:18;;;;;;;;;;;5.60;99.90;;;;;;5033083;28;19931;-77
2021/04/30 01:35:44;;;;;;;;;;;5.60;99.90;;;;;;5033710;28;19905;-77
2021/04/30 01:38:09;;;;;;;;;;;5.70;99.90;;;;;;5033604;28;19912;-77
2021/04/30 01:40:35;;;;;;;;;;;5.60;99.90;;;;;;5034856;28;20261;-77
2021/04/30 01:43:05;;;;;;;;;;;5.70;99.90;;;;;;5034806;28;19905;-77
2021/04/30 01:45:41;;;;;;;;;;;5.60;99.90;;;;;;5033421;28;19971;-77
2021/04/30 01:48:10;;;;;;;;;;;5.50;99.90;;;;;;5033479;28;20265;-77
2021/04/30 01:50:36;;;;;;;;;;;5.40;99.90;;;;;;5033537;28;19909;-77
2021/04/30 01:53:01;;;;;;;;;;;5.30;99.90;;;;;;5033634;28;19905;-77
2021/04/30 01:55:28;;;;;;;;;;;5.30;99.90;;;;;;5033298;28;20284;-77
2021/04/30 01:57:53;;;;;;;;;;;5.20;99.90;;;;;;5034332;28;20368;-77
2021/04/30 02:00:23;;;;;;;;;;;5.20;99.90;;;;;;5034604;28;20004;-77
2021/04/30 02:02:49;;;;;;;;;;;5.20;99.90;;;;;;5033233;28;20003;-77
2021/04/30 02:05:15;;;;;;;;;;;5.20;99.90;;;;;;5033967;28;19956;-77
2021/04/30 02:07:40;;;;;;;;;;;5.20;99.90;;;;;;5040422;28;19920;-78
2021/04/30 02:10:10;;;;;;;;;;;5.20;99.90;;;;;;5054203;28;19900;-78
2021/04/30 02:12:35;;;;;;;;;;;5.20;99.90;;;;;;5046610;28;19913;-78
2021/04/30 02:15:00;;;;;;;;;;;5.20;99.90;;;;;;5044411;28;19905;-78
2021/04/30 02:17:30;;;;;;;;;;;5.10;99.90;;;;;;5034795;28;19905;-77
2021/04/30 02:19:56;;;;;;;;;;;5.10;99.90;;;;;;5033081;28;19905;-77
2021/04/30 02:22:22;;;;;;;;;;;5.00;99.90;;;;;;5034480;28;19905;-77
2021/04/30 02:24:48;;;;;;;;;;;5.00;99.90;;;;;;5032644;28;19959;-77
2021/04/30 02:27:13;;;;;;;;;;;5.00;99.90;;;;;;5032673;28;19913;-77
2021/04/30 02:29:39;;;;;;;;;;;4.90;99.90;;;;;;5032724;28;19927;-77
2021/04/30 02:32:04;;;;;;;;;;;4.90;99.90;;;;;;5033931;28;19955;-77
2021/04/30 02:34:30;;;;;;;;;;;4.90;99.90;;;;;;5033604;28;20011;-77
2021/04/30 02:36:55;;;;;;;;;;;5.00;99.90;;;;;;5033607;28;19905;-77
2021/04/30 02:39:23;;;;;;;;;;;4.90;99.90;;;;;;5032593;28;19908;-77
2021/04/30 02:41:49;;;;;;;;;;;4.90;99.90;;;;;;5032370;28;19954;-77
2021/04/30 02:44:14;;;;;;;;;;;4.90;99.90;;;;;;5033421;28;19913;-77
2021/04/30 02:46:40;;;;;;;;;;;4.90;99.90;;;;;;5032168;28;19968;-77
2021/04/30 02:49:05;;;;;;;;;;;4.80;99.90;;;;;;5032317;28;19912;-77
2021/04/30 02:51:32;;;;;;;;;;;4.70;99.90;;;;;;5032574;28;19915;-77
2021/04/30 02:53:58;;;;;;;;;;;4.80;99.90;;;;;;5033279;28;19912;-77
2021/04/30 02:56:23;;;;;;;;;;;4.70;99.90;;;;;;5031949;28;19905;-77
2021/04/30 02:58:53;;;;;;;;;;;4.80;99.90;;;;;;5032152;28;20419;-77
2021/04/30 03:01:19;;;;;;;;;;;4.70;99.90;;;;;;5032299;28;20329;-77
2021/04/30 03:03:44;;;;;;;;;;;4.70;99.90;;;;;;5033032;28;19944;-77
2021/04/30 03:06:10;;;;;;;;;;;4.70;99.90;;;;;;5032891;28;19908;-77
2021/04/30 03:08:35;;;;;;;;;;;4.80;99.90;;;;;;5031871;28;19909;-77
2021/04/30 03:11:01;;;;;;;;;;;4.80;99.90;;;;;;5031752;28;20011;-77
2021/04/30 03:13:26;;;;;;;;;;;4.80;99.90;;;;;;5032980;28;19951;-78
2021/04/30 03:15:52;;;;;;;;;;;4.70;99.90;;;;;;5032946;28;19905;-79
2021/04/30 03:18:17;;;;;;;;;;;4.70;99.90;;;;;;5031617;28;20379;-77
2021/04/30 03:20:42;;;;;;;;;;;4.60;99.90;;;;;;5032879;28;19905;-78
2021/04/30 03:23:08;;;;;;;;;;;4.60;99.90;;;;;;5031410;28;20283;-77
2021/04/30 03:25:33;;;;;;;;;;;4.60;99.90;;;;;;5032975;28;19970;-77
2021/04/30 03:27:59;;;;;;;;;;;4.60;99.90;;;;;;5032742;28;19912;-77
2021/04/30 03:30:24;;;;;;;;;;;4.60;99.90;;;;;;5031501;28;19913;-77
2021/04/30 03:32:50;;;;;;;;;;;4.60;99.90;;;;;;5032938;28;19921;-77
2021/04/30 03:35:18;;;;;;;;;;;4.70;99.90;;;;;;5032629;28;20346;-77
2021/04/30 03:37:44;;;;;;;;;;;4.70;99.90;;;;;;5031212;28;19911;-77
2021/04/30 03:40:10;;;;;;;;;;;4.70;99.90;;;;;;5031370;28;20019;-77
2021/04/30 03:42:35;;;;;;;;;;;4.70;99.90;;;;;;5031334;28;20332;-77
2021/04/30 03:45:01;;;;;;;;;;;4.70;99.90;;;;;;5031236;28;19955;-77
2021/04/30 03:47:26;;;;;;;;;;;4.60;99.90;;;;;;5032434;28;19951;-77
2021/04/30 03:49:52;;;;;;;;;;;4.60;99.90;;;;;;5031196;28;19967;-77
2021/04/30 03:52:17;;;;;;;;;;;4.50;99.90;;;;;;5031520;28;19912;-77
2021/04/30 03:54:42;;;;;;;;;;;4.60;99.90;;;;;;5032289;28;20345;-77
2021/04/30 03:57:08;;;;;;;;;;;4.50;99.90;;;;;;5035722;28;19905;-77
2021/04/30 03:59:33;;;;;;;;;;;4.50;99.90;;;;;;5037693;28;19912;-78
2021/04/30 04:01:59;;;;;;;;;;;4.40;99.90;;;;;;5037756;28;19999;-77
2021/04/30 04:04:25;;;;;;;;;;;4.50;99.90;;;;;;5037579;28;19915;-77
2021/04/30 04:06:50;;;;;;;;;;;4.50;99.90;;;;;;5037541;28;19958;-77
2021/04/30 04:09:16;;;;;;;;;;;4.50;99.90;;;;;;5038962;28;20331;-77
2021/04/30 04:11:43;;;;;;;;;;;4.60;99.90;;;;;;5039405;28;19909;-77
2021/04/30 04:14:08;;;;;;;;;;;4.60;99.90;;;;;;5037491;28;20334;-77
2021/04/30 04:16:34;;;;;;;;;;;4.60;99.90;;;;;;5037651;28;19905;-76
2021/04/30 04:19:00;;;;;;;;;;;4.60;99.90;;;;;;5038969;28;19905;-76
2021/04/30 04:21:25;;;;;;;;;;;4.70;99.90;;;;;;5038953;28;19915;-77
2021/04/30 04:23:51;;;;;;;;;;;4.70;99.90;;;;;;5037417;28;19909;-77
2021/04/30 04:26:17;;;;;;;;;;;4.70;99.90;;;;;;5037429;28;19905;-77
2021/04/30 04:28:42;;;;;;;;;;;4.80;99.90;;;;;;5037469;28;19984;-77
2021/04/30 04:31:08;;;;;;;;;;;4.70;99.90;;;;;;5037534;28;19976;-77
2021/04/30 04:33:33;;;;;;;;;;;4.80;99.90;;;;;;5038606;28;19905;-76
2021/04/30 04:35:59;;;;;;;;;;;4.80;99.90;;;;;;5037315;28;19905;-76
2021/04/30 04:38:26;;;;;;;;;;;4.90;99.90;;;;;;5037512;28;20344;-77
2021/04/30 04:40:52;;;;;;;;;;;4.90;99.90;;;;;;5037622;28;19912;-77
2021/04/30 04:43:18;;;;;;;;;;;5.00;99.90;;;;;;5037489;28;20330;-77
2021/04/30 04:45:43;;;;;;;;;;;5.10;99.90;;;;;;5037160;28;19904;-76
2021/04/30 04:48:09;;;;;;;;;;;5.30;99.90;;;;;;5035637;28;20371;-77
2021/04/30 04:50:34;;;;;;;;;;;5.30;99.90;;;;;;5036323;28;19948;-77
2021/04/30 04:52:59;;;;;;;;;;;5.50;99.90;;;;;;5037035;28;19909;-77
2021/04/30 04:55:25;;;;;;;;;;;5.70;99.90;;;;;;5036196;28;19916;-77
2021/04/30 04:57:50;;;;;;;;;;;6.00;99.90;;;;;;5036958;28;20279;-77
2021/04/30 05:00:16;;;;;;;;;;;6.30;99.90;;;;;;5037544;28;19913;-77
2021/04/30 05:02:41;;;;;;;;;;;6.60;99.90;;;;;;5036400;28;20383;-77
2021/04/30 05:05:08;;;;;;;;;;;7.00;99.90;;;;;;5037443;28;19905;-77
2021/04/30 05:07:33;;;;;;;;;;;7.10;99.90;;;;;;5035198;28;19917;-76
2021/04/30 05:09:59;;;;;;;;;;;7.40;99.90;;;;;;5032128;28;19932;-77
2021/04/30 05:12:24;;;;;;;;;;;7.50;99.90;;;;;;5034836;28;19909;-77
2021/04/30 05:14:50;;;;;;;;;;;7.40;99.90;;;;;;5035523;28;20360;-78
2021/04/30 05:17:15;;;;;;;;;;;7.40;99.90;;;;;;5052939;28;19928;-77
2021/04/30 05:19:41;;;;;;;;;;;7.30;99.90;;;;;;5049580;28;19904;-78
2021/04/30 05:22:10;;;;;;;;;;;7.20;99.90;;;;;;5044362;28;19913;-77
2021/04/30 05:24:36;;;;;;;;;;;7.10;99.90;;;;;;5045493;28;20363;-77
2021/04/30 05:27:05;;;;;;;;;;;7.10;99.90;;;;;;5043435;28;19904;-77
2021/04/30 05:29:32;;;;;;;;;;;7.20;99.90;;;;;;5041376;28;20028;-76
2021/04/30 05:31:57;;;;;;;;;;;7.20;99.90;;;;;;5026401;28;19913;-76
2021/04/30 05:34:23;;;;;;;;;;;7.20;99.90;;;;;;5023167;28;19905;-77
2021/04/30 05:36:48;;;;;;;;;;;7.30;99.90;;;;;;5014965;28;20004;-77
2021/04/30 05:39:13;;;;;;;;;;;7.20;99.90;;;;;;5013830;28;19905;-77
2021/04/30 05:41:39;;;;;;;;;;;7.30;99.90;;;;;;5012529;28;19912;-77
2021/04/30 05:44:04;;;;;;;;;;;7.40;99.90;;;;;;5013737;28;19909;-76
2021/04/30 05:46:30;;;;;;;;;;;7.60;99.90;;;;;;5012773;28;19921;-77
2021/04/30 05:48:55;;;;;;;;;;;7.60;99.90;;;;;;5012474;28;20196;-77
2021/04/30 05:51:21;;;;;;;;;;;7.80;99.90;;;;;;5012482;28;19910;-76
2021/04/30 05:53:46;;;;;;;;;;;7.70;99.90;;;;;;5012331;28;20190;-77
2021/04/30 05:56:12;;;;;;;;;;;7.90;99.90;;;;;;5012304;28;19952;-77
2021/04/30 05:58:37;;;;;;;;;;;7.90;99.90;;;;;;5012899;28;19913;-77
2021/04/30 06:01:03;;;;;;;;;;;8.10;99.90;;;;;;5012196;28;20300;-77
2021/04/30 06:03:28;;;;;;;;;;;7.90;99.90;;;;;;5013319;28;19909;-77
2021/04/30 06:05:54;;;;;;;;;;;8.10;99.90;;;;;;5011971;28;19905;-77
2021/04/30 06:08:19;;;;;;;;;;;8.20;99.90;;;;;;5012148;28;19909;-77
2021/04/30 06:10:45;;;;;;;;;;;8.20;99.90;;;;;;5012061;28;19913;-77
2021/04/30 06:13:10;;;;;;;;;;;8.30;99.90;;;;;;5020599;28;19916;-77
2021/04/30 06:15:36;;;;;;;;;;;8.50;99.90;;;;;;5031757;28;19905;-77
2021/04/30 06:18:01;;;;;;;;;;;8.30;99.90;;;;;;5030952;28;19976;-77
2021/04/30 06:20:27;;;;;;;;;;;8.70;99.90;;;;;;5031287;28;19940;-77
2021/04/30 06:22:52;;;;;;;;;;;8.70;99.90;;;;;;5033528;28;19912;-76
2021/04/30 06:25:18;;;;;;;;;;;8.80;99.90;;;;;;5032054;28;19910;-77
2021/04/30 06:27:44;;;;;;;;;;;8.80;99.90;;;;;;5030951;28;19905;-77
2021/04/30 06:30:10;;;;;;;;;;;8.90;99.90;;;;;;5031193;28;19909;-77
2021/04/30 06:32:38;;;;;;;;;;;9.00;99.90;;;;;;5031432;28;19924;-77
2021/04/30 06:35:04;;;;;;;;;;;8.80;99.90;;;;;;5032319;28;19913;-76
2021/04/30 06:37:29;;;;;;;;;;;9.00;99.90;;;;;;5032169;28;19932;-78
2021/04/30 06:39:55;;;;;;;;;;;9.20;99.90;;;;;;5031208;28;20395;-77
2021/04/30 06:42:20;;;;;;;;;;;9.50;99.90;;;;;;5031401;28;19947;-77
2021/04/30 06:44:46;;;;;;;;;;;9.40;99.90;;;;;;5030817;28;19905;-76
2021/04/30 06:47:11;;;;;;;;;;;9.10;99.90;;;;;;5029616;28;19905;-77
2021/04/30 06:49:37;;;;;;;10.90;7.38;;;9.00;99.90;;;;;;5028836;28;19909;-77
2021/04/30 06:52:03;;;;;;;;;;;9.10;99.90;;;;;;5031482;28;20361;-77
2021/04/30 06:54:28;;;;;;;;;;;9.10;99.90;;;;;;5029974;28;19912;-77
2021/04/30 06:56:54;;;;;;;;;;;9.20;99.90;;;;;;5029565;28;19905;-76
2021/04/30 06:59:19;;;;;;;;;;;9.20;99.90;;;;;;5031350;28;19912;-76
2021/04/30 07:01:45;;;;;;;;;;;8.90;99.90;;;;;;5031294;28;20003;-77
2021/04/30 07:04:10;;;;;;;;;;;8.80;99.90;;;;;;5030584;28;19905;-76
2021/04/30 07:06:36;;;;;;;;;;;9.00;99.90;;;;;;5031127;28;19932;-77
2021/04/30 07:09:02;;;;;;;;;;;9.40;99.90;;;;;;5030669;28;19959;-77
2021/04/30 07:11:28;;;;;;;;;;;9.70;99.90;;;;;;5030825;28;19909;-77
2021/04/30 07:13:53;;;;;;;;;;;10.10;99.90;;;;;;5030465;28;20364;-76
2021/04/30 07:16:19;;;;;;;;;;;10.50;99.90;;;;;;5030297;28;20257;-77
2021/04/30 07:18:44;;;;;;;;;;;10.40;99.90;;;;;;5031706;28;19911;-77
2021/04/30 07:21:10;;;;;;;;;;;10.30;99.90;;;;;;5031580;28;19905;-75
2021/04/30 07:23:35;;;;;;;;;;;10.40;99.90;;;;;;5030362;28;19908;-77
2021/04/30 07:26:02;;;;;;;13.07;6.82;;;10.20;99.90;;;;;;5030135;28;19912;-76
2021/04/30 07:28:28;;;;;;;;;;;10.60;99.90;;;;;;5030067;28;20338;-76
2021/04/30 07:30:54;;;;;;;16.30;7.00;;;10.60;99.90;;;;;;5030390;28;19909;-76
2021/04/30 07:33:19;;;;;;;12.60;7.53;;;10.60;99.90;;;;;;5029710;28;20025;-76
2021/04/30 07:35:45;;;;;;;12.80;7.97;;;10.30;99.90;;;;;;5030768;28;20025;-76
2021/04/30 07:38:11;;;;;;;11.68;6.80;;;10.00;99.90;;;;;;5030955;28;20056;-75
2021/04/30 07:40:39;;;;;;;13.70;7.97;;;10.00;99.90;;;;;;5031106;28;20022;-75
2021/04/30 07:43:07;;;;;;;15.02;7.45;;;9.80;99.90;;;;;;5030997;28;20025;-76
2021/04/30 07:45:34;;;;;;;10.52;6.57;;;9.90;99.90;;;;;;5029402;28;20034;-76
2021/04/30 07:48:00;;;;;;;11.25;7.20;;;10.10;99.90;;;;;;5029157;28;20464;-76
2021/04/30 07:50:25;;;;;;;10.32;6.30;;;10.50;99.90;;;;;;5030202;28;20048;-76
2021/04/30 07:52:51;;;;;;;13.90;7.78;;;10.20;99.90;;;;;;5029587;28;20022;-76
2021/04/30 07:55:16;;;;;;;15.35;6.78;;;10.30;99.90;;;;;;5030722;28;20024;-76
2021/04/30 07:57:42;;;;;;;11.20;6.97;;;10.60;99.90;;;;;;5029199;28;20032;-76
2021/04/30 08:00:08;;;;;;;12.45;7.03;;;10.40;99.90;;;;;;5030303;28;20384;-76
2021/04/30 08:02:33;;;;;;;11.40;7.60;;;10.60;99.90;;;;;;5030781;28;20053;-76
2021/04/30 08:04:59;;;;;;;12.38;7.05;;;10.50;99.90;;;;;;5030634;28;19955;-76
2021/04/30 08:07:24;;;;;;;14.07;8.05;;;10.50;99.90;;;;;;5029419;28;20488;-76
2021/04/30 08:09:53;;;;;;;10.30;6.18;;;10.60;99.90;;;;;;5028961;28;20025;-75
2021/04/30 08:12:19;;;;;;;11.90;6.40;;;10.80;99.90;;;;;;5029686;28;20452;-77
2021/04/30 08:14:45;;;;;;;9.02;6.43;;;10.90;99.90;;;;;;5031971;28;20496;-76
2021/04/30 08:17:11;;;;;;;11.35;7.03;;;11.20;99.90;;;;;;5031725;28;20013;-77
2021/04/30 08:19:37;;;;;;;11.68;6.20;;;11.40;99.90;;;;;;5032330;28;20033;-77
2021/04/30 08:22:03;;;;;;;9.75;6.35;;;11.40;99.90;;;;;;5030127;28;20511;-76
2021/04/30 08:24:28;;;;;;;15.20;6.30;;;11.30;99.90;;;;;;5030338;28;20061;-76
2021/04/30 08:26:54;;;;;;;9.43;5.88;;;11.10;99.90;;;;;;5028922;28;20136;-76
2021/04/30 08:29:19;;;;;;;9.73;6.43;;;11.30;99.90;;;;;;5028551;28;20030;-75
2021/04/30 08:31:45;;;;;;;12.00;6.47;;;11.20;99.90;;;;;;5030696;28;20105;-75
2021/04/30 08:34:11;;;;;;;9.13;6.35;;;11.30;99.90;;;;;;5030222;28;20028;-75
2021/04/30 08:36:36;;;;;;;11.82;6.55;;;11.60;99.90;;;;;;5029122;28;20022;-75
2021/04/30 08:39:03;;;;;;;;;;;12.60;99.90;;;;;;5030394;28;20452;-76
2021/04/30 08:41:29;;;;;;;;;;;12.80;99.90;;;;;;5030674;28;19905;-76
2021/04/30 08:43:55;;;;;;;;;;;13.20;99.90;;;;;;5032792;28;19909;-75
2021/04/30 08:46:20;;;;;;;;;;;13.40;99.90;;;;;;5032879;28;19905;-75
2021/04/30 08:48:46;;;;;;;;;;;13.30;99.90;;;;;;5034358;28;20422;-76
2021/04/30 08:51:12;;;;;;;;;;;12.90;99.90;;;;;;5033111;28;20284;-75
2021/04/30 08:53:41;;;;;;;;;;;12.80;99.90;;;;;;5033595;28;19905;-75
2021/04/30 08:56:06;;;;;;;;;;;12.40;99.90;;;;;;5032723;28;20376;-75
2021/04/30 08:58:36;;;;;;;;;;;12.30;99.90;;;;;;5034046;28;20012;-76
2021/04/30 09:01:02;;;;;;;;;;;12.40;99.90;;;;;;5033316;28;19909;-76
2021/04/30 09:03:27;;;;;;;;;;;12.40;99.90;;;;;;5033900;28;20379;-76
2021/04/30 09:05:57;;;;;;;;;;;12.70;99.90;;;;;;5032933;28;19905;-77
2021/04/30 09:08:23;;;;;;;;;;;13.00;99.90;;;;;;5033179;28;19971;-75
2021/04/30 09:10:50;;;;;;;;;;;11.90;99.90;;;;;;5024309;28;19917;-75
2021/04/30 09:13:17;;;;;;;;;;;11.70;99.90;;;;;;5027318;28;19940;-76
2021/04/30 09:15:44;;;;;;;;;;;12.00;99.90;;;;;;5033270;28;20353;-75
2021/04/30 09:18:32;;;;;;;9.07;5.83;;;12.00;99.90;;;;;;5034714;28;20378;-76
2021/04/30 09:21:07;;;;;;;;;;;11.90;99.90;;;;;;5034734;28;20164;-76
2021/04/30 09:23:40;;;;;;;;;;;11.70;99.90;;;;;;5033319;28;19905;-76
2021/04/30 09:26:21;;;;;;;;;;;11.50;99.90;;;;;;5034650;28;19935;-76
2021/04/30 09:29:01;;;;;;;12.02;6.95;;;11.40;99.90;;;;;;5033974;28;20261;-75
2021/04/30 09:31:40;;;;;;;9.70;6.43;;;11.40;99.90;;;;;;5033015;28;20493;-76
2021/04/30 09:34:25;;;;;;;11.10;6.88;;;11.50;99.90;;;;;;5032772;28;20025;-75
2021/04/30 09:37:19;;;;;;;10.38;6.43;;;11.60;99.90;;;;;;5032781;28;20484;-76
2021/04/30 09:39:54;;;;;;;11.38;6.03;;;11.50;99.90;;;;;;5034321;28;20021;-76
2021/04/30 09:42:28;;;;;;;11.02;6.65;;;11.40;99.90;;;;;;5034580;28;20017;-76
2021/04/30 09:44:58;;;;;;;10.10;6.65;;;11.00;99.90;;;;;;5033118;28;20060;-76
2021/04/30 09:47:25;;;;;;;9.57;5.45;;;11.00;99.90;;;;;;5032818;28;20028;-76
2021/04/30 09:49:59;;;;;;;11.52;5.93;;;10.90;99.90;;;;;;5033677;28;20108;-76
2021/04/30 09:52:27;;;;;;;8.15;5.35;;;11.00;99.90;;;;;;5033796;28;20048;-76
2021/04/30 09:54:53;;;;;;;;;;;11.10;99.90;;;;;;5032057;28;20234;-76
2021/04/30 09:57:23;;;;;;;;;;;11.00;99.90;;;;;;5033956;28;19905;-75
2021/04/30 09:59:53;;;;;;;;;;;11.20;99.90;;;;;;5033147;28;20002;-76
2021/04/30 10:02:20;;;;;;;;;;;11.30;99.90;;;;;;5033953;28;19905;-76
2021/04/30 10:04:46;;;;;;;;;;;11.30;99.90;;;;;;5030095;28;19917;-77
2021/04/30 10:07:16;;;;;;;;;;;11.30;99.90;;;;;;5013900;28;20004;-77
2021/04/30 10:09:42;;;;;;;;;;;11.10;99.90;;;;;;5012729;28;19910;-76
2021/04/30 10:12:19;;;;;;;;;;;10.90;99.90;;;;;;5013170;28;20296;-76
2021/04/30 10:14:44;;;;;;;;;;;10.70;99.90;;;;;;5029422;28;19910;-76
2021/04/30 10:17:11;;;;;;;;;;;10.80;99.90;;;;;;5012617;28;20007;-76
2021/04/30 10:19:36;;;;;;;9.77;6.18;;;10.90;99.90;;;;;;5012396;28;19905;-77
2021/04/30 10:22:02;;;;;;;10.48;6.72;;;11.10;99.90;;;;;;5012046;28;20022;-76
2021/04/30 10:24:32;;;;;;;11.55;6.45;;;11.30;99.90;;;;;;5013276;28;20026;-77
2021/04/30 10:26:57;;;;;;;10.45;6.18;;;11.30;99.90;;;;;;5013143;28;20021;-78
2021/04/30 10:29:25;;;;;;;;;;;11.50;99.90;;;;;;5012557;28;20021;-76
2021/04/30 10:31:52;;;;;;;;;;;11.20;99.90;;;;;;5012275;28;19909;-76
2021/04/30 10:34:23;;;;;;;;;;;11.20;99.90;;;;;;5012487;28;19906;-77
2021/04/30 10:36:51;;;;;;;;;;;10.90;99.90;;;;;;5012152;28;19905;-76
2021/04/30 10:39:33;;;;;;;;;;;10.90;99.90;;;;;;5012314;28;20338;-76
2021/04/30 10:42:07;;;;;;;;;;;11.20;99.90;;;;;;5015917;28;19909;-76
2021/04/30 10:44:33;;;;;;;;;;;11.40;99.90;;;;;;5023229;28;19905;-76
2021/04/30 10:47:05;;;;;;;;;;;11.30;99.90;;;;;;5021648;28;19959;-76
2021/04/30 10:49:30;;;;;;;;;;;11.20;99.90;;;;;;5024350;28;19905;-76
2021/04/30 10:52:20;;;;;;;;;;;11.30;99.90;;;;;;5021834;28;19913;-76
2021/04/30 10:54:48;;;;;;;;;;;11.30;99.90;;;;;;5024025;28;19909;-76
2021/04/30 10:57:14;;;;;;;;;;;11.50;99.90;;;;;;5023155;28;19905;-76
2021/04/30 10:59:44;;;;;;;;;;;11.30;99.90;;;;;;5022632;28;19909;-76
2021/04/30 11:02:26;;;;;;;;;;;11.30;99.90;;;;;;5021417;28;19906;-76
2021/04/30 11:05:07;;;;;;;;;;;11.30;99.90;;;;;;5024446;28;19928;-76
2021/04/30 11:07:34;;;;;;;;;;;11.30;99.90;;;;;;5020474;28;19914;-77
2021/04/30 11:09:59;;;;;;;;;;;11.10;99.90;;;;;;5021244;28;19909;-76
2021/04/30 11:12:25;;;;;;;;;;;11.00;99.90;;;;;;5021306;28;20296;-75
2021/04/30 11:15:02;;;;;;;;;;;10.80;99.90;;;;;;5024367;28;19963;-76
2021/04/30 11:17:46;;;;;;;;;;;11.10;99.90;;;;;;5023435;28;19909;-76
2021/04/30 11:20:13;;;;;;;;;;;11.20;99.90;;;;;;5027122;28;19913;-77
2021/04/30 11:22:38;;;;;;;;;;;11.10;99.90;;;;;;5032477;28;19996;-76
2021/04/30 11:25:13;;;;;;;;;;;11.40;99.90;;;;;;5032695;28;19975;-76
2021/04/30 11:27:39;;;;;;;;;;;11.40;99.90;;;;;;5029493;28;19909;-76
2021/04/30 11:30:18;;;;;;;10.25;5.72;;;11.50;99.90;;;;;;5023980;28;19909;-76
2021/04/30 11:32:53;;;;;;;8.82;6.25;;;11.60;99.90;;;;;;5032170;28;20029;-76
2021/04/30 11:35:19;;;;;;;9.95;5.63;;;11.60;99.90;;;;;;5015509;28;20030;-76
2021/04/30 11:37:48;;;;;;;8.38;5.47;;;11.50;99.90;;;;;;5012057;28;20029;-76
2021/04/30 11:40:14;;;;;;;9.68;5.53;;;11.30;99.90;;;;;;5010953;28;20077;-77
2021/04/30 11:42:40;;;;;;;8.50;5.13;;;11.40;99.90;;;;;;5010957;28;20026;-77
2021/04/30 11:45:07;;;;;;;7.72;4.93;;;11.30;99.90;;;;;;5010868;28;20044;-77
2021/04/30 11:47:37;;;;;;;;;;;11.20;99.90;;;;;;5027658;28;20040;-77
2021/04/30 11:50:04;;;;;;;;;;;11.30;99.90;;;;;;5031247;28;19959;-77
2021/04/30 11:52:32;;;;;;;;;;;11.00;99.90;;;;;;5031097;28;19913;-77
2021/04/30 11:55:02;;;;;;;;;;;11.00;99.90;;;;;;5030901;28;19916;-77
2021/04/30 11:57:28;;;;;;;;;;;11.00;99.90;;;;;;5030688;28;20430;-76
2021/04/30 11:59:55;;;;;;;;;;;10.90;99.90;;;;;;5032403;28;19909;-77
2021/04/30 12:02:23;;;;;;;;;;;11.10;99.90;;;;;;5030888;28;20406;-77
2021/04/30 12:04:51;;;;;;;;;;;11.20;99.90;;;;;;5030679;28;19936;-77
2021/04/30 12:07:17;;;;;;;;;;;11.30;99.90;;;;;;5030555;28;19920;-77
2021/04/30 12:09:43;;;;;;;;;;;11.30;99.90;;;;;;5032597;28;19910;-76
2021/04/30 12:12:09;;;;;;;;;;;11.50;99.90;;;;;;5030645;28;19920;-76
2021/04/30 12:14:42;;;;;;;;;;;11.70;99.90;;;;;;5030300;28;19916;-77
2021/04/30 12:17:07;;;;;;;5.22;3.88;;;11.80;99.90;;;;;;5030264;28;19909;-76
2021/04/30 12:19:33;;;;;;;9.98;3.55;;;11.90;99.90;;;;;;5034218;28;20050;-76
2021/04/30 12:21:58;;;;;;;5.55;3.97;;;11.70;99.90;;;;;;5035456;28;20025;-77
2021/04/30 12:24:24;;;;;;;4.18;3.25;;;11.80;99.90;;;;;;5014555;28;20104;-76
2021/04/30 12:26:49;;;;;;;6.97;4.75;;;12.10;99.90;;;;;;5014259;28;20467;-76
2021/04/30 12:29:15;;;;;;;6.68;4.57;;;12.40;99.90;;;;;;5015299;28;20030;-76
2021/04/30 12:31:46;;;;;;;8.80;5.10;;;12.70;99.90;;;;;;5014201;28;20029;-77
2021/04/30 12:34:12;;;;;;;;;;;12.50;99.90;;;;;;5014339;28;19956;-76
2021/04/30 12:36:37;;;;;;;;;;;12.50;99.90;;;;;;5014507;28;20006;-76
2021/04/30 12:39:04;;;;;;;;;;;12.20;99.90;;;;;;5033226;28;20443;-76
2021/04/30 12:41:33;;;;;;;;;;;12.00;99.90;;;;;;5055993;28;19944;-76
2021/04/30 12:44:00;;;;;;;;;;;11.80;99.90;;;;;;5053938;28;19904;-76
2021/04/30 12:46:27;;;;;;;;;;;11.50;99.90;;;;;;5053353;28;19958;-76
2021/04/30 12:48:54;;;;;;;;;;;11.40;99.90;;;;;;5050030;28;20304;-76
2021/04/30 12:51:27;;;;;;;6.07;4.15;;;11.20;99.90;;;;;;5053013;28;19909;-76
2021/04/30 12:53:52;;;;;;;;;;;11.00;99.90;;;;;;5053759;28;20047;-76
2021/04/30 12:56:33;;;;;;;;;;;10.70;99.90;;;;;;5054966;28;19908;-76
2021/04/30 12:59:04;;;;;;;;;;;10.70;99.90;;;;;;5053758;28;20279;-76
2021/04/30 13:01:30;;;;;;;;;;;10.70;99.90;;;;;;5048996;28;19908;-76
2021/04/30 13:03:56;;;;;;;;;;;;;;;;;;5035941;28;20423;-77
2021/04/30 13:06:22;;;;;;;;;;;10.80;99.90;;;;;;5033845;28;19912;-76
2021/04/30 13:08:48;;;;;;;;;;;10.70;99.90;;;;;;5034793;28;19916;-76
2021/04/30 13:11:15;;;;;;;;;;;10.80;99.90;;;;;;5033825;28;19909;-76
2021/04/30 13:13:59;;;;;;;;;;;11.00;99.90;;;;;;5033446;28;19928;-77
2021/04/30 13:16:39;;;;;;;;;;;11.00;99.90;;;;;;5034851;28;20338;-76
2021/04/30 13:19:13;;;;;;;8.30;5.70;;;11.00;99.90;;;;;;5034331;28;19911;-76
2021/04/30 13:21:39;;;;;;;;;;;11.20;99.90;;;;;;5049780;28;20029;-76
2021/04/30 13:24:09;;;;;;;;;;;11.40;99.90;;;;;;5034148;28;20422;-76
2021/04/30 13:26:34;;;;;;;;;;;12.00;99.90;;;;;;5034696;28;20399;-76
2021/04/30 13:29:10;;;;;;;;;;;12.30;99.90;;;;;;5032493;28;19905;-76
2021/04/30 13:31:35;;;;;;;;;;;12.80;99.90;;;;;;5044870;28;19946;-76
2021/04/30 13:34:09;;;;;;;9.43;5.53;;;12.80;99.90;;;;;;5050477;28;19912;-76
2021/04/30 13:36:53;;;;;;;6.97;5.73;;;13.00;99.90;;;;;;5052824;28;20395;-77
2021/04/30 13:39:29;;;;;;;9.00;5.40;;;12.90;99.90;;;;;;5054328;28;20268;-77
2021/04/30 13:41:55;;;;;;;8.35;5.30;;;12.60;99.90;;;;;;5053880;28;20025;-77
2021/04/30 13:44:23;;;;;;;8.90;5.30;;;12.70;99.90;;;;;;5052554;28;20029;-76
2021/04/30 13:46:54;;;;;;;11.85;5.75;;;12.50;99.90;;;;;;5052617;28;20044;-76
2021/04/30 13:49:38;;;;;;;;;;;12.40;99.90;;;;;;5052733;28;19991;-76
2021/04/30 13:52:04;;;;;;;;;;;12.60;99.90;;;;;;5052747;28;20344;-76
2021/04/30 13:54:29;;;;;;;;;;;12.50;99.90;;;;;;5052674;28;19944;-76
2021/04/30 13:56:55;;;;;;;;;;;12.30;99.90;;;;;;5052727;28;19916;-77
2021/04/30 13:59:20;;;;;;;;;;;12.40;99.90;;;;;;5052543;28;19912;-76
2021/04/30 14:01:46;;;;;;;;;;;12.60;99.90;;;;;;5052866;28;20190;-76
2021/04/30 14:04:11;;;;;;;;;;;12.60;99.90;;;;;;5052445;28;19904;-77